Time;durP1;ratioP1;P1;durP2;ratioP2;P2;SDS_P1;SDS_P2;PMS_P1;PMS_P2;Temp;Humidity;BMP_temperature;BMP_pressure;BME280_temperature;BME280_humidity;BME280_pressure;Samples;Min_cycle;Max_cycle;Signal;HPM_P1;HPM_P2
2022/11/10 00:01:51;;;;;;;39.20;25.88;;;;;;;3.79;100.00;93745.28;5112080;28;20562;-75
2022/11/10 00:04:17;;;;;;;41.47;27.02;;;;;;;3.80;100.00;93746.84;5112447;28;20080;-76
2022/11/10 00:06:46;;;;;;;46.20;28.95;;;;;;;3.81;100.00;93750.97;5112794;28;20051;-76
2022/11/10 00:09:13;;;;;;;46.42;31.15;;;;;;;3.80;100.00;93749.41;5111997;28;20052;-76
2022/11/10 00:11:42;;;;;;;40.47;28.88;;;;;;;3.76;100.00;93743.81;5112321;28;20052;-76
2022/11/10 00:17:03;;;;;;;40.20;27.98;;;;;;;3.60;100.00;93732.66;5112241;28;20535;-76
2022/11/10 00:19:30;;;;;;;40.35;28.20;;;;;;;3.64;100.00;93745.84;5111469;28;20455;-76
2022/11/10 00:21:57;;;;;;;42.50;27.98;;;;;;;3.66;100.00;93749.00;5112045;28;20044;-75
2022/11/10 00:24:24;;;;;;;40.58;29.13;;;;;;;3.59;100.00;93746.31;5111916;28;20497;-75
2022/11/10 00:26:52;;;;;;;43.40;29.35;;;;;;;3.61;100.00;93744.41;5112204;28;20047;-75
2022/11/10 00:29:19;;;;;;;44.75;28.55;;;;;;;3.65;100.00;93746.66;5112144;28;20056;-75
2022/11/10 00:31:46;;;;;;;42.58;30.02;;;;;;;3.63;100.00;93740.91;5112173;28;20390;-75
2022/11/10 00:34:14;;;;;;;42.13;29.38;;;;;;;3.51;100.00;93735.31;5111681;28;20184;-75
2022/11/10 00:36:42;;;;;;;43.47;29.58;;;;;;;3.46;100.00;93740.84;5112038;28;20051;-75
2022/11/10 00:39:09;;;;;;;40.90;27.92;;;;;;;3.45;100.00;93729.91;5111856;28;20140;-75
2022/11/10 00:41:36;;;;;;;45.25;29.83;;;;;;;3.51;100.00;93730.25;5111760;28;20044;-75
2022/11/10 00:44:04;;;;;;;39.67;27.40;;;;;;;3.55;100.00;93727.25;5111735;28;20059;-75
2022/11/10 00:46:31;;;;;;;45.95;30.77;;;;;;;3.56;100.00;93728.81;5111770;28;20047;-75
2022/11/10 00:48:58;;;;;;;37.80;27.33;;;;;;;3.56;100.00;93733.91;5111822;28;20511;-75
2022/11/10 00:51:26;;;;;;;41.35;27.73;;;;;;;3.56;100.00;93726.28;5111759;28;20109;-75
2022/11/10 00:53:54;;;;;;;42.25;28.35;;;;;;;3.41;100.00;93708.28;5101637;28;20053;-75
2022/11/10 00:56:21;;;;;;;38.80;27.13;;;;;;;3.48;100.00;93727.03;5093533;28;20060;-75
2022/11/10 00:58:48;;;;;;;40.00;27.27;;;;;;;3.42;100.00;93729.41;5111277;28;20124;-75
2022/11/10 01:01:18;;;;;;;38.58;26.77;;;;;;;3.36;100.00;93724.94;5111624;28;20097;-75
2022/11/10 01:03:45;;;;;;;36.83;25.25;;;;;;;3.20;100.00;93706.94;5096075;28;20056;-75
2022/11/10 01:06:14;;;;;;;37.13;24.90;;;;;;;3.32;100.00;93726.97;5111496;28;20504;-75
2022/11/10 01:08:41;;;;;;;36.10;24.25;;;;;;;3.32;100.00;93726.97;5110650;28;20043;-75
2022/11/10 01:11:10;;;;;;;34.70;24.83;;;;;;;3.26;100.00;93717.44;5111555;28;20117;-75
2022/11/10 01:13:37;;;;;;;38.08;25.40;;;;;;;3.24;100.00;93724.41;5111105;28;20044;-75
2022/11/10 01:16:04;;;;;;;35.90;24.05;;;;;;;3.20;100.00;93729.00;5087972;28;20056;-75
2022/11/10 01:18:33;;;;;;;33.85;23.90;;;;;;;3.19;100.00;93714.69;5104624;28;20089;-74
2022/11/10 01:21:00;;;;;;;38.20;23.55;;;;;;;3.20;100.00;93724.69;5111197;28;20048;-75
2022/11/10 01:23:27;;;;;;;35.83;24.85;;;;;;;3.22;100.00;93719.47;5111182;28;20059;-74
2022/11/10 01:25:57;;;;;;;39.95;25.17;;;;;;;3.17;100.00;93708.97;5110574;28;20112;-75
2022/11/10 01:28:24;;;;;;;37.13;24.23;;;;;;;3.20;100.00;93721.38;5111099;28;20052;-75
2022/11/10 01:30:57;;;;;;;38.28;25.25;;;;;;;3.15;100.00;93708.34;5104171;28;20044;-75
2022/11/10 01:33:23;;;;;;;37.30;24.13;;;;;;;3.14;100.00;93710.06;5104517;28;20067;-75
2022/11/10 01:35:51;;;;;;;41.25;26.58;;;;;;;3.19;100.00;93720.56;5109903;28;20488;-75
2022/11/10 01:38:18;;;;;;;34.60;24.20;;;;;;;3.25;100.00;93719.19;5110908;28;20558;-76
2022/11/10 01:40:45;;;;;;;35.72;24.67;;;;;;;3.30;100.00;93722.06;5110776;28;20043;-76
2022/11/10 01:43:13;;;;;;;36.92;25.30;;;;;;;3.29;100.00;93723.00;5110408;28;20065;-76
2022/11/10 01:45:50;;;;;;;33.25;23.42;;;;;;;3.25;100.00;93724.28;5110401;28;20554;-76
2022/11/10 01:48:23;;;;;;;44.20;27.83;;;;;;;3.23;100.00;93718.53;5110352;28;20047;-76
2022/11/10 01:50:52;;;;;;;43.63;26.48;;;;;;;3.10;100.00;93702.94;5110452;28;20443;-75
2022/11/10 01:53:24;;;;;;;68.20;35.85;;;;;;;3.27;100.00;93719.81;5109990;28;20089;-76
2022/11/10 01:55:52;;;;;;;68.80;37.45;;;;;;;3.32;100.00;93716.81;5084080;28;20467;-76
2022/11/10 01:58:25;;;;;;;68.28;36.95;;;;;;;3.31;100.00;93721.13;5110235;28;20521;-75
2022/11/10 02:00:52;;;;;;;73.75;38.97;;;;;;;3.39;100.00;93720.38;5096803;28;20127;-75
2022/11/10 02:03:29;;;;;;;81.82;43.50;;;;;;;3.42;100.00;93714.97;5110303;28;20443;-75
2022/11/10 02:05:57;;;;;;;82.40;44.60;;;;;;;3.46;100.00;93723.06;5096263;28;20048;-75
2022/11/10 02:08:25;;;;;;;89.13;46.45;;;;;;;3.51;100.00;93730.25;5110173;28;20100;-75
2022/11/10 02:10:52;;;;;;;87.07;48.97;;;;;;;3.53;100.00;93725.81;5109747;28;20051;-75
2022/11/10 02:13:19;;;;;;;91.78;47.70;;;;;;;3.59;100.00;93726.00;5110364;28;20047;-75
2022/11/10 02:15:46;;;;;;;97.70;50.85;;;;;;;3.64;100.00;93722.97;5081115;28;20113;-75
2022/11/10 02:18:12;;;;;;;97.97;49.92;;;;;;;3.64;100.00;93733.13;5109776;28;20497;-75
2022/11/10 02:20:44;;;;;;;101.60;54.75;;;;;;;3.60;100.00;93729.31;5098398;28;20051;-75
2022/11/10 02:23:35;;;;;;;105.85;53.63;;;;;;;3.61;100.00;93736.78;5083110;28;20048;-76
2022/11/10 02:26:03;;;;;;;102.50;52.53;;;;;;;3.67;100.00;93732.84;5081590;28;20097;-76
2022/11/10 02:28:33;;;;;;;104.95;49.42;;;;;;;3.68;100.00;93736.97;5089383;28;20048;-76
2022/11/10 02:31:00;;;;;;;92.22;43.55;;;;;;;3.63;100.00;93734.09;5089342;28;20069;-76
2022/11/10 02:33:26;;;;;;;86.78;41.67;;;;;;;3.71;100.00;93743.50;5089274;28;20494;-76
2022/11/10 02:35:55;;;;;;;89.63;42.25;;;;;;;3.74;100.00;93748.25;5089094;28;20463;-76
2022/11/10 02:38:21;;;;;;;95.38;44.45;;;;;;;3.77;100.00;93747.16;5080572;28;20559;-76
2022/11/10 02:40:49;;;;;;;83.93;43.50;;;;;;;3.73;100.00;93739.03;5083926;28;20446;-76
2022/11/10 02:43:18;;;;;;;86.65;43.30;;;;;;;3.86;100.00;93752.13;5089626;28;20088;-76
2022/11/10 02:45:45;;;;;;;96.18;44.67;;;;;;;3.77;100.00;93736.97;5089085;28;20448;-76
2022/11/10 02:48:13;;;;;;;91.85;43.38;;;;;;;3.82;100.00;93755.09;5088413;28;20052;-76
2022/11/10 02:50:41;;;;;;;89.20;41.28;;;;;;;3.85;100.00;93757.34;5089407;28;20052;-77
2022/11/10 02:53:09;;;;;;;84.75;39.33;;;;;;;3.85;100.00;93762.44;5088933;28;20044;-76
2022/11/10 02:55:36;;;;;;;87.22;43.67;;;;;;;3.76;100.00;93753.19;5088641;28;20201;-76
2022/11/10 02:58:02;;;;;;;83.90;42.15;;;;;;;3.82;100.00;93755.09;5089176;28;20052;-76
2022/11/10 03:00:30;;;;;;;87.60;43.00;;;;;;;3.83;100.00;93757.50;5088675;28;20569;-76
2022/11/10 03:02:57;;;;;;;86.13;42.25;;;;;;;3.84;100.00;93754.00;5089085;28;20048;-76
2022/11/10 03:05:24;;;;;;;85.05;43.38;;;;;;;3.87;100.00;93752.91;5088811;28;20055;-76
2022/11/10 03:07:54;;;;;;;80.78;43.67;;;;;;;3.81;100.00;93750.97;5088917;28;20441;-76
2022/11/10 03:10:22;;;;;;;72.60;39.55;;;;;;;3.89;100.00;93763.69;5089009;28;20079;-76
2022/11/10 03:12:53;;;;;;;67.00;40.72;;;;;;;3.93;100.00;93764.22;5088885;28;20044;-76
2022/11/10 03:15:19;;;;;;;73.68;40.83;;;;;;;3.97;100.00;93758.66;5088996;28;20044;-76
2022/11/10 03:17:46;;;;;;;72.82;40.85;;;;;;;3.98;100.00;93767.09;5088289;28;20086;-76
2022/11/10 03:20:13;;;;;;;68.57;38.13;;;;;;;4.02;100.00;93770.88;5088687;28;20043;-76
2022/11/10 03:22:40;;;;;;;64.07;38.05;;;;;;;3.95;100.00;93768.19;5075385;28;20094;-76
2022/11/10 03:25:07;;;;;;;69.90;39.55;;;;;;;4.02;100.00;93778.50;5068621;28;20045;-76
2022/11/10 03:27:36;;;;;;;70.00;39.35;;;;;;;4.03;100.00;93779.31;5071429;28;20450;-76
2022/11/10 03:30:03;;;;;;;67.68;38.88;;;;;;;4.04;100.00;93775.81;5072039;28;20060;-76
2022/11/10 03:32:30;;;;;;;66.85;39.10;;;;;;;4.04;100.00;93776.63;5071652;28;20074;-76
2022/11/10 03:34:56;;;;;;;65.70;37.40;;;;;;;3.98;100.00;93764.53;5071977;28;20455;-76
2022/11/10 03:37:23;;;;;;;64.75;36.35;;;;;;;3.93;100.00;93759.91;5072170;28;20110;-76
2022/11/10 03:39:50;;;;;;;71.45;38.15;;;;;;;3.98;100.00;93772.94;5071934;28;20052;-75
2022/11/10 03:42:17;;;;;;;75.93;40.53;;;;;;;4.00;100.00;93773.59;5072109;28;20105;-76
2022/11/10 03:44:45;;;;;;;76.53;41.88;;;;;;;3.98;100.00;93769.63;5071754;28;20054;-76
2022/11/10 03:47:11;;;;;;;74.57;43.47;;;;;;;3.93;100.00;93767.53;5071487;28;20052;-76
2022/11/10 03:49:38;;;;;;;80.85;44.25;;;;;;;3.98;100.00;93767.09;5071745;28;20045;-77
2022/11/10 03:52:05;;;;;;;78.63;44.45;;;;;;;3.95;100.00;93769.91;5071998;28;20078;-77
2022/11/10 03:54:32;;;;;;;75.88;44.63;;;;;;;3.85;100.00;93767.53;5081206;28;20048;-77
2022/11/10 03:56:58;;;;;;;70.50;40.90;;;;;;;3.85;100.00;93770.06;5091715;28;20048;-78
2022/11/10 03:59:25;;;;;;;67.88;41.67;;;;;;;3.80;100.00;93767.19;5091787;28;20044;-76
2022/11/10 04:01:53;;;;;;;72.80;41.22;;;;;;;3.80;100.00;93772.25;5091567;28;20127;-76
2022/11/10 04:09:48;;;;;;;64.65;39.20;;;;;;;3.77;100.00;93778.44;5091767;28;20418;-76
2022/11/10 04:17:50;;;;;;;61.30;37.47;;;;;;;3.61;100.00;93776.63;5090991;28;20055;-74
2022/11/10 04:20:17;;;;;;;62.00;38.00;;;;;;;3.60;100.00;93769.97;5091334;28;20463;-75
2022/11/10 04:25:28;;;;;;;57.67;36.33;;;;;;;3.58;100.00;93766.78;5091610;28;20047;-75
2022/11/10 04:27:53;;;;;;;53.30;36.13;;;;;;;3.68;100.00;93784.44;5091344;28;20554;-75
2022/11/10 04:30:20;;;;;;;54.15;34.83;;;;;;;3.63;100.00;93766.31;5091293;28;20044;-75
2022/11/10 04:32:47;;;;;;;49.33;33.30;;;;;;;3.73;100.00;93785.59;5090861;28;20044;-76
2022/11/10 04:35:16;;;;;;;50.60;32.72;;;;;;;3.74;100.00;93784.63;5091597;28;20123;-76
2022/11/10 04:37:43;;;;;;;49.60;31.20;;;;;;;3.76;100.00;93794.66;5090179;28;20052;-76
2022/11/10 04:40:11;;;;;;;48.95;32.63;;;;;;;3.78;100.00;93789.38;5090586;28;20478;-77
2022/11/10 04:42:51;;;;;;;43.00;27.65;;;;;;;3.78;100.00;93785.13;5091258;28;20562;-77
2022/11/10 04:45:18;;;;;;;40.92;27.10;;;;;;;3.82;100.00;93793.22;5076103;28;20041;-76
2022/11/10 04:47:44;;;;;;;38.72;26.75;;;;;;;3.79;100.00;93780.84;5070099;28;20044;-77
2022/11/10 04:50:11;;;;;;;37.25;25.33;;;;;;;3.84;100.00;93789.59;5070830;28;20122;-77
2022/11/10 04:52:39;;;;;;;35.83;23.48;;;;;;;3.83;100.00;93792.28;5070852;28;20094;-77
2022/11/10 04:55:07;;;;;;;38.97;24.10;;;;;;;3.84;100.00;93799.75;5084429;28;20048;-76
2022/11/10 04:57:34;;;;;;;36.25;24.20;;;;;;;3.78;100.00;93787.66;5090609;28;20036;-77
2022/11/10 05:00:00;;;;;;;39.28;23.75;;;;;;;3.85;100.00;93800.56;5090831;28;20101;-77
2022/11/10 05:02:27;;;;;;;37.10;23.15;;;;;;;3.76;100.00;93794.66;5090646;28;20047;-76
2022/11/10 05:04:54;;;;;;;38.38;22.90;;;;;;;3.70;100.00;93783.34;5090426;28;20543;-76
2022/11/10 05:07:22;;;;;;;36.85;24.05;;;;;;;3.80;100.00;93806.06;5090656;28;20044;-81
2022/11/10 05:09:50;;;;;;;35.72;24.15;;;;;;;3.82;100.00;93798.31;5090676;28;20044;-80
2022/11/10 05:12:17;;;;;;;37.47;24.15;;;;;;;3.76;100.00;93799.72;5090973;28;20075;-78
2022/11/10 05:14:44;;;;;;;34.83;24.25;;;;;;;3.80;100.00;93801.00;5090688;28;20443;-78
2022/11/10 05:17:10;;;;;;;34.55;23.45;;;;;;;3.79;100.00;93798.63;5090545;28;20048;-78
2022/11/10 05:19:37;;;;;;;40.03;25.95;;;;;;;3.80;100.00;93800.22;5089737;28;20089;-77
2022/11/10 05:22:05;;;;;;;39.40;25.55;;;;;;;3.81;100.00;93796.72;5090449;28;20040;-77
2022/11/10 05:24:32;;;;;;;39.03;24.23;;;;;;;3.79;100.00;93798.63;5090242;28;20548;-78
2022/11/10 05:27:00;;;;;;;40.67;24.35;;;;;;;3.82;100.00;93793.22;5090662;28;20044;-77
2022/11/10 05:29:27;;;;;;;35.80;22.88;;;;;;;3.81;100.00;93786.56;5090582;28;20052;-78
2022/11/10 05:31:54;;;;;;;35.00;22.58;;;;;;;3.81;100.00;93774.66;5090233;28;20052;-77
2022/11/10 05:34:20;;;;;;;43.72;25.42;;;;;;;3.85;100.00;93780.22;5090212;28;20103;-76
2022/11/10 05:36:47;;;;;;;45.58;26.83;;;;;;;4.01;100.00;93795.53;5089906;28;20044;-77
2022/11/10 05:39:14;;;;;;;50.53;30.50;;;;;;;4.07;100.00;93804.28;5077696;28;20048;-77
2022/11/10 05:41:40;;;;;;;41.10;26.15;;;;;;;4.10;100.00;93811.59;5069999;28;20041;-77
2022/11/10 05:44:09;;;;;;;45.47;27.27;;;;;;;4.14;100.00;93804.47;5069419;28;20044;-77
2022/11/10 05:46:35;;;;;;;44.30;26.35;;;;;;;4.19;100.00;93809.06;5069512;28;20551;-76
2022/11/10 05:49:02;;;;;;;43.22;27.70;;;;;;;4.17;100.00;93806.66;5069437;28;20114;-76
2022/11/10 05:51:29;;;;;;;45.95;27.33;;;;;;;4.21;100.00;93814.81;5086905;28;20047;-76
2022/11/10 05:53:56;;;;;;;53.85;29.90;;;;;;;4.27;100.00;93817.50;5089598;28;20044;-76
2022/11/10 05:56:22;;;;;;;59.92;36.03;;;;;;;4.23;100.00;93805.28;5089559;28;20060;-77
2022/11/10 05:58:49;;;;;;;66.80;36.85;;;;;;;4.32;100.00;93827.25;5089795;28;20052;-77
2022/11/10 06:01:17;;;;;;;51.95;30.15;;;;;;;4.34;100.00;93824.50;5089624;28;20512;-78
2022/11/10 06:03:44;;;;;;;48.20;28.38;;;;;;;4.36;100.00;93828.50;5089746;28;20044;-77
2022/11/10 06:06:11;;;;;;;44.70;26.45;;;;;;;4.37;100.00;93832.66;5089746;28;20463;-77
2022/11/10 06:08:37;;;;;;;43.67;25.65;;;;;;;4.33;100.00;93828.81;5089407;28;20101;-77
2022/11/10 06:11:04;;;;;;;45.10;26.48;;;;;;;4.42;100.00;93839.81;5089368;28;20566;-79
2022/11/10 06:13:31;;;;;;;43.97;26.67;;;;;;;4.45;100.00;93831.88;5089439;28;20044;-77
2022/11/10 06:15:58;;;;;;;43.80;27.70;;;;;;;4.53;100.00;93839.50;5089904;28;20056;-77
2022/11/10 06:18:26;;;;;;;45.03;27.20;;;;;;;4.63;100.00;93838.59;5089530;28;20110;-77
2022/11/10 06:20:53;;;;;;;46.40;26.73;;;;;;;4.70;100.00;93844.63;5089098;28;20044;-79
2022/11/10 06:23:19;;;;;;;45.35;30.38;;;;;;;4.71;100.00;93846.22;5089156;28;20463;-77
2022/11/10 06:25:46;;;;;;;49.30;30.40;;;;;;;4.77;100.00;93844.81;5089072;28;20052;-77
2022/11/10 06:28:13;;;;;;;48.00;28.25;;;;;;;4.70;100.00;93849.72;5089285;28;20471;-77
2022/11/10 06:30:40;;;;;;;54.75;32.03;;;;;;;4.74;100.00;93858.63;5089156;28;20050;-77
2022/11/10 06:33:07;;;;;;;57.03;33.92;;;;;;;4.85;100.00;93857.53;5089038;28;20101;-76
2022/11/10 06:35:35;;;;;;;56.13;33.47;;;;;;;4.91;100.00;93861.19;5096282;28;20080;-77
2022/11/10 06:38:04;;;;;;;53.20;33.03;;;;;;;4.76;100.00;93866.09;5109798;28;20578;-77
2022/11/10 06:40:31;;;;;;;49.58;30.50;;;;;;;4.66;100.00;93863.69;5104102;28;20456;-77
2022/11/10 06:43:00;;;;;;;51.08;30.13;;;;;;;4.59;100.00;93863.53;5101540;28;20100;-77
2022/11/10 06:45:27;;;;;;;48.70;29.92;;;;;;;4.57;100.00;93864.66;5110025;28;20068;-77
2022/11/10 06:48:02;;;;;;;52.15;30.92;;;;;;;4.62;100.00;93870.84;5109603;28;20048;-76
2022/11/10 06:50:29;;;;;;;54.85;31.77;;;;;;;4.66;100.00;93878.97;5109930;28;20520;-76
2022/11/10 06:52:58;;;;;;;46.13;29.88;;;;;;;4.67;100.00;93876.28;5109993;28;20128;-76
2022/11/10 06:55:25;;;;;;;45.47;29.25;;;;;;;4.68;100.00;93875.31;5080903;28;20567;-77
2022/11/10 06:57:53;;;;;;;52.80;30.38;;;;;;;4.86;100.00;93876.94;5109450;28;20497;-77
2022/11/10 07:00:20;;;;;;;48.72;28.65;;;;;;;4.89;100.00;93869.00;5109524;28;20492;-77
2022/11/10 07:02:47;;;;;;;40.88;26.55;;;;;;;5.03;100.00;93876.94;5112960;28;20500;-77
2022/11/10 07:05:15;;;;;;;42.03;25.48;;;;;;;4.81;100.00;93876.59;5113595;28;20051;-78
2022/11/10 07:07:41;;;;;;;42.75;27.05;;;;;;;4.93;100.00;93869.47;5113975;28;20042;-78
2022/11/10 07:10:10;;;;;;;37.75;24.95;;;;;;;4.92;100.00;93875.50;5113992;28;20458;-77
2022/11/10 07:12:37;;;;;;;40.28;25.63;;;;;;;5.09;100.00;93878.84;5113394;28;20067;-77
2022/11/10 07:15:04;;;;;;;38.28;26.33;;;;;;;5.18;100.00;93884.72;5113662;28;20047;-77
2022/11/10 07:17:31;;;;;;;43.58;28.83;;;;;;;5.18;100.00;93875.34;5096380;28;20080;-77
2022/11/10 07:19:57;;;;;;;37.70;25.75;;;;;;;5.29;100.00;93878.53;5095243;28;20440;-77
2022/11/10 07:22:24;;;;;;;41.95;28.77;;;;;;;5.41;100.00;93879.03;5112997;28;20104;-76
2022/11/10 07:24:51;;;;;;;40.15;27.40;;;;;;;5.53;100.00;93882.81;5113314;28;20130;-77
2022/11/10 07:27:19;;;;;;;39.42;26.63;;;;;;;5.56;100.00;93882.47;5113425;28;20458;-77
2022/11/10 07:29:46;;;;;;;44.05;26.92;;;;;;;5.70;100.00;93888.66;5113119;28;20081;-77
2022/11/10 07:32:13;;;;;;;38.08;24.85;;;;;;;5.84;100.00;93883.88;5113151;28;20137;-77
2022/11/10 07:34:40;;;;;;;37.95;25.52;;;;;;;5.95;100.00;93877.63;5113339;28;20044;-77
2022/11/10 07:37:08;;;;;;;39.90;27.25;;;;;;;6.06;100.00;93889.28;5113641;28;20052;-77
2022/11/10 07:39:34;;;;;;;35.60;26.65;;;;;;;6.09;100.00;93887.19;5113061;28;20048;-77
2022/11/10 07:42:01;;;;;;;34.53;24.98;;;;;;;6.23;100.00;93887.44;5112897;28;20043;-77
2022/11/10 07:44:29;;;;;;;36.70;24.88;;;;;;;6.14;100.00;93887.47;5113040;28;20043;-77
2022/11/10 07:46:56;;;;;;;40.42;25.10;;;;;;;6.25;100.00;93893.97;5112870;28;20112;-77
2022/11/10 07:49:23;;;;;;;39.17;26.85;;;;;;;6.28;100.00;93891.09;5112631;27;20055;-77
2022/11/10 07:51:49;;;;;;;42.85;25.75;;;;;;;6.16;100.00;93849.06;5112851;28;20047;-77
2022/11/10 07:54:16;;;;;;;44.10;27.83;;;;;;;6.50;100.00;93883.66;5096179;28;20044;-77
2022/11/10 07:56:43;;;;;;;50.55;32.92;;;;;;;6.64;100.00;93877.06;5100600;28;20124;-77
2022/11/10 07:59:09;;;;;;;68.63;43.35;;;;;;;6.74;100.00;93876.03;5112307;28;20113;-77
2022/11/10 08:01:37;;;;;;;46.50;30.58;;;;;;;6.78;100.00;93880.63;5112777;28;20492;-77
2022/11/10 08:04:04;;;;;;;47.20;30.50;;;;;;;6.84;100.00;93878.38;5107786;27;20048;-77
2022/11/10 08:06:31;;;;;;;52.88;31.13;;;;;;;6.65;100.00;93877.81;5103162;28;20562;-77
2022/11/10 08:08:58;;;;;;;50.90;32.13;;;;;;;6.71;100.00;93884.81;5112219;28;20047;-77
2022/11/10 08:11:25;;;;;;;46.58;28.13;;;;;;;6.52;100.00;93881.72;5111796;28;20497;-77
2022/11/10 08:13:52;;;;;;;55.55;33.17;;;;;;;6.73;100.00;93888.00;5111414;28;20047;-77
2022/11/10 08:16:18;;;;;;;51.00;31.05;;;;;;;6.68;100.00;93883.38;5112227;28;20081;-77
2022/11/10 08:18:47;;;;;;;58.70;35.70;;;;;;;6.74;100.00;93883.69;5112338;28;20048;-77
2022/11/10 08:21:13;;;;;;;52.42;31.48;;;;;;;6.75;100.00;93883.50;5111672;28;20047;-77
2022/11/10 08:23:40;;;;;;;51.05;31.17;;;;;;;6.83;100.00;93885.22;5112159;28;20451;-77
2022/11/10 08:26:07;;;;;;;51.15;30.27;;;;;;;6.88;100.00;93885.50;5112196;28;20051;-77
2022/11/10 08:28:33;;;;;;;60.20;33.35;;;;;;;6.82;100.00;93891.31;5111876;28;20101;-77
2022/11/10 08:31:03;;;;;;;54.58;32.53;;;;;;;7.04;100.00;93889.72;5112008;28;20096;-77
2022/11/10 08:33:29;;;;;;;55.30;31.73;;;;;;;7.07;100.00;93889.38;5111651;28;20125;-77
2022/11/10 08:36:01;;;;;;;52.05;32.38;;;;;;;7.22;100.00;93875.84;5111717;28;20048;-76
2022/11/10 08:38:28;;;;;;;52.15;32.45;;;;;;;7.40;100.00;93901.09;5112073;28;20048;-77
2022/11/10 08:40:56;;;;;;;49.83;30.52;;;;;;;7.51;100.00;93897.34;5111845;28;20108;-76
2022/11/10 08:43:23;;;;;;;48.70;30.40;;;;;;;7.70;100.00;93908.84;5105502;28;20121;-77
2022/11/10 08:45:49;;;;;;;50.17;31.38;;;;;;;7.81;100.00;93902.50;5104024;28;20112;-77
2022/11/10 08:48:18;;;;;;;52.38;32.17;;;;;;;7.86;100.00;93901.97;5111480;28;20054;-77
2022/11/10 08:50:45;;;;;;;48.92;29.65;;;;;;;7.95;100.00;93903.47;5110885;28;20051;-77
2022/11/10 08:53:15;;;;;;;55.80;31.52;;;;;;;7.95;100.00;93866.84;5111061;28;20073;-77
2022/11/10 08:55:43;;;;;;;54.55;33.28;;;;;;;8.34;100.00;93911.06;5082902;28;20494;-77
2022/11/10 08:58:13;;;;;;;48.58;29.45;;;;;;;8.46;100.00;93901.16;5111545;28;20475;-77
2022/11/10 09:00:39;;;;;;;60.58;33.60;;;;;;;8.66;100.00;93907.31;5106484;28;20044;-77
2022/11/10 09:03:08;;;;;;;52.03;31.15;;;;;;;8.79;100.00;93909.25;5102208;28;20100;-77
2022/11/10 09:05:36;;;;;;;51.45;29.40;;;;;;;8.80;100.00;93895.47;5111494;28;20100;-77
2022/11/10 09:08:03;;;;;;;48.67;30.65;;;;;;;8.71;100.00;93916.25;5111491;28;20104;-77
2022/11/10 09:10:32;;;;;;;42.70;27.17;;;;;;;8.86;100.00;93909.31;5111187;28;20483;-77
2022/11/10 09:13:00;;;;;;;46.88;28.08;;;;;;;9.00;100.00;93917.94;5111355;28;20124;-77
2022/11/10 09:15:27;;;;;;;43.80;26.40;;;;;;;9.16;100.00;93914.34;5111249;28;20073;-77
2022/11/10 09:17:53;;;;;;;44.78;27.48;;;;;;;9.33;100.00;93912.31;5111316;28;20048;-77
2022/11/10 09:20:20;;;;;;;43.40;27.63;;;;;;;9.55;100.00;93914.88;5111245;28;20083;-77
2022/11/10 09:22:47;;;;;;;45.13;28.58;;;;;;;9.76;100.00;93911.47;5111054;28;20043;-77
2022/11/10 09:25:13;;;;;;;51.72;28.30;;;;;;;9.99;100.00;93914.75;5110318;28;20398;-77
2022/11/10 09:27:42;;;;;;;42.72;26.63;;;;;;;10.19;100.00;93917.47;5111194;28;20044;-77
2022/11/10 09:30:10;;;;;;;39.38;25.88;;;;;;;10.39;100.00;93919.31;5111260;28;20093;-77
2022/11/10 09:32:36;;;;;;;46.55;26.92;;;;;;;10.61;100.00;93922.63;5096711;28;20051;-77
2022/11/10 09:35:03;;;;;;;47.22;26.45;;;;;;;10.75;100.00;93923.47;5110767;28;20052;-77
2022/11/10 09:37:31;;;;;;;41.38;25.90;;;;;;;10.76;100.00;93914.78;5110683;28;20493;-77
2022/11/10 09:39:58;;;;;;;43.47;26.27;;;;;;;10.65;100.00;93921.25;5110976;28;20047;-77
2022/11/10 09:42:33;;;;;;;46.33;27.67;;;;;;;10.67;100.00;93918.47;5098084;28;20052;-77
2022/11/10 09:45:06;;;;;;;43.13;27.63;;;;;;;10.71;100.00;93911.19;5110610;28;20050;-78
2022/11/10 09:47:40;;;;;;;48.38;27.95;;;;;;;10.94;100.00;93909.06;5110133;28;20104;-77
2022/11/10 09:50:08;;;;;;;39.78;25.52;;;;;;;10.72;100.00;93910.19;5110440;28;20359;-76
2022/11/10 09:52:37;;;;;;;41.38;25.90;;;;;;;10.58;100.00;93914.47;5110724;28;20390;-76
2022/11/10 09:55:17;;;;;;;44.05;25.52;;;;;;;10.39;100.00;93909.84;5081627;28;20060;-76
2022/11/10 09:57:44;;;;;;;43.72;26.25;;;;;;;10.36;100.00;93899.94;5110589;28;20047;-76
2022/11/10 10:00:16;;;;;;;48.08;27.77;;;;;;;10.35;100.00;93893.25;5110388;28;20047;-76
2022/11/10 10:02:48;;;;;;;47.08;27.27;;;;;;;10.40;100.00;93902.94;5110217;28;20055;-76
2022/11/10 10:06:01;;;;;;;45.30;25.98;;;;;;;10.23;100.00;93890.41;5110506;28;20055;-76
2022/11/10 10:08:42;;;;;;;49.15;27.50;;;;;;;10.20;100.00;93900.28;5047240;28;20060;-76
2022/11/10 10:11:26;;;;;;;45.25;27.67;;;;;;;10.51;100.00;93901.63;5102870;28;20396;-76
2022/11/10 10:14:07;;;;;;;46.15;27.50;;;;;;;10.63;100.00;93904.44;5110225;27;20443;-77
2022/11/10 10:16:44;;;;;;;39.38;25.48;;;;;;;10.35;100.00;93895.81;5110484;28;20047;-76
2022/11/10 10:19:21;;;;;;;41.92;25.85;;;;;;;10.48;100.00;93894.31;5109607;28;20044;-76
2022/11/10 10:22:03;;;;;;;43.50;25.65;;;;;;;10.33;100.00;93895.22;5110218;28;20112;-76
2022/11/10 10:24:33;;;;;;;42.53;25.80;;;;;;;10.61;100.00;93907.22;5110026;28;20067;-77
2022/11/10 10:27:04;;;;;;;40.47;24.75;;;;;;;10.72;100.00;93905.03;5106378;28;20047;-76
2022/11/10 10:29:39;;;;;;;43.17;26.35;;;;;;;10.78;100.00;93902.50;5080976;28;20446;-76
2022/11/10 10:32:11;;;;;;;42.97;25.60;;;;;;;11.12;100.00;93899.22;5108815;28;20522;-76
2022/11/10 10:34:39;;;;;;;45.60;27.65;;;;;;;11.36;100.00;93895.28;5109634;28;20089;-76
2022/11/10 10:37:14;;;;;;;50.90;29.50;;;;;;;11.56;100.00;93889.34;5109866;28;20051;-77
2022/11/10 10:39:46;;;;;;;57.53;31.55;;;;;;;11.42;100.00;93896.28;5109669;28;20051;-76
2022/11/10 10:42:24;;;;;;;48.05;28.40;;;;;;;11.69;100.00;93891.94;5096374;28;20432;-76
2022/11/10 10:45:13;;;;;;;45.30;26.63;;;;;;;11.58;100.00;93892.53;5083088;28;20043;-76
2022/11/10 10:47:42;;;;;;;48.10;26.17;;;;;;;11.80;100.00;93897.47;5108903;28;20047;-76
2022/11/10 10:50:31;;;;;;;52.58;29.65;;;;;;;11.95;100.00;93894.66;5109520;28;20055;-76
2022/11/10 10:53:12;;;;;;;52.20;29.08;;;;;;;11.83;100.00;93876.47;5109488;28;20132;-76
2022/11/10 10:55:39;;;;;;;49.42;26.88;;;;;;;11.76;100.00;93894.50;5081089;28;20047;-76
2022/11/10 10:58:19;;;;;;;51.88;28.80;;;;;;;11.69;100.00;93891.94;5109567;28;20562;-77
2022/11/10 11:00:47;;;;;;;53.60;27.77;;;;;;;11.43;100.00;93890.16;5109709;28;20043;-77
2022/11/10 11:03:25;;;;;;;50.88;28.92;;;;;;;11.60;100.00;93860.47;5109443;28;20051;-77
2022/11/10 11:06:07;;;;;;;60.28;27.98;;;;;;;11.74;100.00;93865.59;5109402;28;20048;-77
2022/11/10 11:08:34;;;;;;;45.90;26.25;;;;;;;11.78;100.00;93866.78;5109638;28;20455;-77
2022/11/10 11:11:09;;;;;;;50.72;27.67;;;;;;;11.78;100.00;93871.91;5107839;28;20093;-77
2022/11/10 11:13:40;;;;;;;54.63;29.23;;;;;;;11.78;100.00;93864.19;5087917;28;20501;-77
2022/11/10 11:16:11;;;;;;;54.28;26.77;;;;;;;12.01;100.00;93863.75;5073613;28;20118;-77
2022/11/10 11:18:40;;;;;;;49.53;27.60;;;;;;;11.63;100.00;93865.19;5068608;28;20065;-77
2022/11/10 11:21:27;;;;;;;49.38;26.85;;;;;;;11.73;100.00;93859.66;5090045;28;20049;-77
2022/11/10 11:24:14;;;;;;;54.97;26.70;;;;;;;11.65;100.00;93856.47;5108912;28;20048;-77
2022/11/10 11:26:48;;;;;;;51.97;27.85;;;;;;;11.73;100.00;93839.06;5073980;28;20048;-77
2022/11/10 11:29:29;;;;;;;51.55;28.70;;;;;;;11.62;100.00;93855.13;5073268;28;20048;-77
2022/11/10 11:32:07;;;;;;;51.00;27.70;;;;;;;11.73;100.00;93846.00;5092678;28;20040;-77
2022/11/10 11:34:44;;;;;;;55.22;27.83;;;;;;;11.77;100.00;93842.81;5109578;28;20062;-77
2022/11/10 11:37:21;;;;;;;50.80;27.60;;;;;;;11.92;100.00;93841.00;5108926;28;20100;-77
2022/11/10 11:39:56;;;;;;;54.20;28.35;;;;;;;12.25;100.00;93847.84;5109408;28;20093;-77